Terminal Aerodrome Forecast
Issued by NWS Corpus Christi, TX

Home | Current Version | Previous Version | Text Only | Print | Product List | Glossary On
Versions: 1 2 3 4 5 6 7 8 9 10 11 12 13 14
000
FTUS44 KCRP 050527
TAFCRP
TAF
KCRP 050527Z 0506/0606 16007KT P6SM FEW015
      TEMPO 0512/0514 SCT015
     FM051400 17012G17KT P6SM SCT025 SCT035
     FM051900 14022G28KT P6SM FEW035
     FM060200 15014KT P6SM FEW018=

USA.gov is the U.S. government's official web portal to all federal, state and local government web resources and services.